createdAt,value
2023-05-24T00:00:19.169Z,19.90
2023-05-24T00:02:48.263Z,19.90
2023-05-24T00:05:16.963Z,19.90
2023-05-24T00:07:45.737Z,19.90
2023-05-24T00:10:16.009Z,19.80
2023-05-24T00:12:44.616Z,19.80
2023-05-24T00:15:13.410Z,19.80
2023-05-24T00:17:42.902Z,19.70
2023-05-24T00:20:14.402Z,19.70
2023-05-24T00:22:43.510Z,19.70
2023-05-24T00:25:12.040Z,19.70
2023-05-24T00:27:44.774Z,19.70
2023-05-24T00:30:13.860Z,19.60
2023-05-24T00:32:42.455Z,19.60
2023-05-24T00:35:11.120Z,19.60
2023-05-24T00:37:40.335Z,19.60
2023-05-24T00:40:10.383Z,19.50
2023-05-24T00:42:38.947Z,19.50
2023-05-24T00:45:10.121Z,19.50
2023-05-24T00:47:38.606Z,19.50
2023-05-24T00:50:09.772Z,19.50
2023-05-24T00:52:38.824Z,19.40
2023-05-24T00:55:08.757Z,19.40
2023-05-24T00:57:37.989Z,19.40
2023-05-24T01:00:09.719Z,19.40
2023-05-24T01:02:39.862Z,19.40
2023-05-24T01:05:09.558Z,19.30
2023-05-24T01:07:52.646Z,19.30
2023-05-24T01:10:35.900Z,19.30
2023-05-24T01:13:13.795Z,19.30
2023-05-24T01:15:53.885Z,19.30
2023-05-24T01:18:30.560Z,19.30
2023-05-24T01:21:08.088Z,19.30
2023-05-24T01:23:46.761Z,19.20
2023-05-24T01:26:38.953Z,19.20
2023-05-24T01:29:09.722Z,19.20
2023-05-24T01:31:38.587Z,19.20
2023-05-24T01:34:07.768Z,19.20
2023-05-24T01:36:36.410Z,19.20
2023-05-24T01:39:05.901Z,19.10
2023-05-24T01:41:41.303Z,19.10
2023-05-24T01:44:16.937Z,19.10
2023-05-24T01:46:51.402Z,19.10
2023-05-24T01:49:23.726Z,19.10
2023-05-24T01:51:56.555Z,19.10
2023-05-24T01:54:29.268Z,19.00
2023-05-24T01:56:58.761Z,19.00
2023-05-24T01:59:31.387Z,19.00
2023-05-24T02:01:59.796Z,19.00
2023-05-24T02:04:28.326Z,19.00
2023-05-24T02:06:56.713Z,19.00
2023-05-24T02:09:25.209Z,18.90
2023-05-24T02:11:53.850Z,18.90
2023-05-24T02:14:22.760Z,18.90
2023-05-24T02:16:52.614Z,18.90
2023-05-24T02:19:21.860Z,18.90
2023-05-24T02:21:51.529Z,18.90
2023-05-24T02:24:20.466Z,18.90
2023-05-24T02:26:48.910Z,18.90
2023-05-24T02:29:18.543Z,18.80
2023-05-24T02:31:48.041Z,18.80
2023-05-24T02:34:17.829Z,18.80
2023-05-24T02:36:46.583Z,18.80
2023-05-24T02:39:15.258Z,18.80
2023-05-24T02:41:43.617Z,18.80
2023-05-24T02:44:12.023Z,18.70
2023-05-24T02:46:40.455Z,18.70
2023-05-24T02:49:10.136Z,18.70
2023-05-24T02:51:40.561Z,18.70
2023-05-24T02:54:09.009Z,18.70
2023-05-24T02:56:37.699Z,18.70
2023-05-24T02:59:06.604Z,18.60
2023-05-24T03:01:35.633Z,18.60
2023-05-24T03:04:04.322Z,18.60
2023-05-24T03:06:35.328Z,18.60
2023-05-24T03:09:05.643Z,18.60
2023-05-24T03:11:34.053Z,18.60
2023-05-24T03:14:03.662Z,18.60
2023-05-24T03:16:32.114Z,18.60
2023-05-24T03:19:02.065Z,18.60
2023-05-24T03:21:30.624Z,18.60
2023-05-24T03:23:59.452Z,18.60
2023-05-24T03:26:29.800Z,18.70
2023-05-24T03:28:58.261Z,18.70
2023-05-24T03:31:26.870Z,18.70
2023-05-24T03:33:55.487Z,18.70
2023-05-24T03:36:28.712Z,18.70
2023-05-24T03:38:59.307Z,18.70
2023-05-24T03:41:29.257Z,18.70
2023-05-24T03:43:57.732Z,18.70
2023-05-24T03:46:26.173Z,18.70
2023-05-24T03:51:38.390Z,18.80
2023-05-24T03:54:07.361Z,18.80
2023-05-24T03:56:38.906Z,18.90
2023-05-24T03:59:07.505Z,18.90
2023-05-24T04:01:36.834Z,18.90
2023-05-24T04:04:05.732Z,18.90
2023-05-24T04:06:37.011Z,18.90
2023-05-24T04:09:06.356Z,19.00
2023-05-24T04:11:37.110Z,19.00
2023-05-24T04:14:05.605Z,19.00
2023-05-24T04:16:39.862Z,19.00
2023-05-24T04:19:08.612Z,19.00
2023-05-24T04:21:37.502Z,19.10
2023-05-24T04:42:33.855Z,19.40
2023-05-24T04:45:04.684Z,19.40
2023-05-24T04:47:34.279Z,19.50
2023-05-24T04:50:04.594Z,19.50
2023-05-24T04:52:33.510Z,19.60
2023-05-24T04:55:01.910Z,19.60
2023-05-24T04:57:31.766Z,19.70
2023-05-24T05:00:18.869Z,19.80
2023-05-24T05:02:47.959Z,19.80
2023-05-24T05:05:19.728Z,19.90
2023-05-24T05:07:48.219Z,19.90
2023-05-24T05:10:16.802Z,20.00
2023-05-24T05:12:46.610Z,20.10
2023-05-24T05:15:15.152Z,20.10
2023-05-24T05:17:43.670Z,20.20
2023-05-24T05:20:12.375Z,20.20
2023-05-24T05:22:40.919Z,20.30
2023-05-24T05:25:10.078Z,20.30
2023-05-24T05:27:38.562Z,20.40
2023-05-24T05:30:09.876Z,20.50
2023-05-24T05:32:38.773Z,20.60
2023-05-24T05:35:08.281Z,20.60
2023-05-24T05:37:36.684Z,20.70
2023-05-24T05:40:05.515Z,20.70
2023-05-24T05:42:33.921Z,20.80
2023-05-24T05:45:02.253Z,20.90
2023-05-24T05:47:32.032Z,21.00
2023-05-24T05:50:00.564Z,21.10
2023-05-24T05:52:28.971Z,21.10
2023-05-24T05:54:57.627Z,21.20
2023-05-24T05:57:26.195Z,21.30
2023-05-24T05:59:54.794Z,21.30
2023-05-24T06:02:23.962Z,21.40
2023-05-24T06:04:54.283Z,21.50
2023-05-24T06:07:23.041Z,21.60
2023-05-24T06:09:51.689Z,21.70
2023-05-24T06:12:20.102Z,21.70
2023-05-24T06:14:51.003Z,21.80
2023-05-24T06:17:24.634Z,21.90
2023-05-24T06:19:55.942Z,22.00
2023-05-24T06:22:24.700Z,22.00
2023-05-24T06:24:53.110Z,22.10
2023-05-24T06:27:21.879Z,22.30
2023-05-24T06:29:50.317Z,22.30
2023-05-24T06:32:18.928Z,22.40
2023-05-24T06:34:47.630Z,22.50
2023-05-24T06:37:17.955Z,22.60
2023-05-24T06:39:46.380Z,22.70
2023-05-24T06:42:14.878Z,22.70
2023-05-24T06:44:43.271Z,22.80
2023-05-24T06:47:12.099Z,22.90
2023-05-24T06:49:40.665Z,22.90
2023-05-24T06:52:09.295Z,23.00
2023-05-24T06:54:39.241Z,23.10
2023-05-24T06:57:09.064Z,23.20
2023-05-24T06:59:37.684Z,23.30
2023-05-24T07:02:06.729Z,23.30
2023-05-24T07:04:35.419Z,23.40
2023-05-24T07:07:04.267Z,23.50
2023-05-24T07:09:32.845Z,23.60
2023-05-24T07:12:02.976Z,23.70
2023-05-24T07:14:31.822Z,23.70
2023-05-24T07:17:00.403Z,23.80
2023-05-24T07:19:30.019Z,23.80
2023-05-24T07:21:58.696Z,23.90
2023-05-24T07:24:27.064Z,24.00
2023-05-24T07:26:56.964Z,24.00
2023-05-24T07:29:27.840Z,24.10
2023-05-24T07:31:58.289Z,24.10
2023-05-24T07:34:28.117Z,24.10
2023-05-24T07:36:56.841Z,24.20
2023-05-24T07:39:25.380Z,24.20
2023-05-24T07:41:53.999Z,24.30
2023-05-24T07:44:22.422Z,24.40
2023-05-24T07:46:52.456Z,24.40
2023-05-24T07:49:21.218Z,24.50
2023-05-24T07:51:50.133Z,24.50
2023-05-24T07:54:18.395Z,24.50
2023-05-24T07:56:47.338Z,24.60
2023-05-24T07:59:16.171Z,24.60
2023-05-24T08:01:44.624Z,24.70
2023-05-24T08:04:14.368Z,24.70
2023-05-24T08:06:43.311Z,24.70
2023-05-24T08:09:12.518Z,24.80
2023-05-24T08:11:42.044Z,24.80
2023-05-24T08:14:10.668Z,24.80
2023-05-24T08:16:39.267Z,24.90
2023-05-24T08:19:08.036Z,25.00
2023-05-24T08:21:39.054Z,25.00
2023-05-24T08:24:09.456Z,25.00
2023-05-24T08:26:39.980Z,25.00
2023-05-24T08:29:08.753Z,25.00
2023-05-24T08:31:38.391Z,25.10
2023-05-24T08:34:07.151Z,25.20
2023-05-24T08:36:35.616Z,25.30
2023-05-24T08:39:06.864Z,25.30
2023-05-24T08:41:37.738Z,25.40
2023-05-24T08:44:07.825Z,25.50
2023-05-24T08:46:37.564Z,25.50
2023-05-24T08:49:07.768Z,25.60
2023-05-24T08:51:38.718Z,25.60
2023-05-24T08:54:10.161Z,25.70
2023-05-24T08:56:39.168Z,25.80
2023-05-24T08:59:08.278Z,25.90
2023-05-24T09:01:59.646Z,25.90
2023-05-24T09:04:29.191Z,25.90
2023-05-24T09:06:58.685Z,26.00
2023-05-24T09:09:30.181Z,26.10
2023-05-24T09:12:01.910Z,26.10
2023-05-24T09:14:30.966Z,26.20
2023-05-24T09:16:59.974Z,26.20
2023-05-24T09:19:29.615Z,26.20
2023-05-24T09:21:59.005Z,26.30
2023-05-24T09:24:28.820Z,26.30
2023-05-24T09:27:06.173Z,26.30
2023-05-24T09:29:37.776Z,26.30
2023-05-24T09:32:09.209Z,26.20
2023-05-24T09:34:41.617Z,26.20
2023-05-24T09:37:16.703Z,26.20
2023-05-24T09:39:48.277Z,26.10
2023-05-24T09:42:17.730Z,26.10
2023-05-24T09:44:47.348Z,26.20
2023-05-24T09:47:16.624Z,26.30
2023-05-24T09:49:48.470Z,26.20
2023-05-24T09:52:17.562Z,26.30
2023-05-24T09:54:48.185Z,26.30
2023-05-24T09:57:18.059Z,26.40
2023-05-24T09:59:46.749Z,26.50
2023-05-24T10:02:15.193Z,26.60
2023-05-24T10:04:43.800Z,26.60
2023-05-24T10:07:13.437Z,26.70
2023-05-24T10:09:42.737Z,26.80
2023-05-24T10:12:12.573Z,26.90
2023-05-24T10:14:40.995Z,27.00
2023-05-24T10:17:10.189Z,27.10
2023-05-24T10:19:39.532Z,27.10
2023-05-24T10:22:09.247Z,27.20
2023-05-24T10:24:42.215Z,27.20
2023-05-24T10:27:15.757Z,27.30
2023-05-24T10:29:52.237Z,27.40
2023-05-24T10:32:23.052Z,27.50
2023-05-24T10:34:54.163Z,27.50
2023-05-24T10:37:22.897Z,27.60
2023-05-24T10:39:52.406Z,27.70
2023-05-24T10:42:22.236Z,27.70
2023-05-24T10:44:50.689Z,27.80
2023-05-24T10:47:22.306Z,27.80
2023-05-24T10:49:53.043Z,27.90
2023-05-24T10:52:22.191Z,28.00
2023-05-24T10:55:09.941Z,28.00
2023-05-24T10:57:40.969Z,28.00
2023-05-24T11:03:05.246Z,28.00
2023-05-24T11:05:50.113Z,27.90
2023-05-24T11:08:24.734Z,27.90
2023-05-24T11:11:19.047Z,27.90
2023-05-24T11:13:58.199Z,27.90
2023-05-24T11:16:40.471Z,27.80
2023-05-24T11:19:18.676Z,27.80
2023-05-24T11:21:48.787Z,28.00
2023-05-24T11:24:18.761Z,28.00
2023-05-24T11:26:47.947Z,28.10
2023-05-24T11:29:21.162Z,28.10
2023-05-24T11:31:50.845Z,28.20
2023-05-24T11:34:19.530Z,28.40
2023-05-24T11:36:48.557Z,28.40
2023-05-24T11:39:18.084Z,28.40
2023-05-24T11:41:46.746Z,28.50
2023-05-24T11:44:20.698Z,28.40
2023-05-24T11:46:49.090Z,28.50
2023-05-24T11:49:18.448Z,28.60
2023-05-24T11:51:47.308Z,28.70
2023-05-24T11:54:16.353Z,28.80
2023-05-24T11:56:44.652Z,28.90
2023-05-24T11:59:17.737Z,29.10
2023-05-24T12:01:47.493Z,29.20
2023-05-24T12:04:15.974Z,29.20
2023-05-24T12:06:45.180Z,29.20
2023-05-24T12:09:14.737Z,29.20
2023-05-24T12:11:44.574Z,29.20
2023-05-24T12:14:17.677Z,29.20
2023-05-24T12:16:48.365Z,29.20
2023-05-24T12:19:32.303Z,29.20
2023-05-24T12:22:01.731Z,29.20
2023-05-24T12:24:30.700Z,29.20
2023-05-24T12:27:07.069Z,29.30
2023-05-24T12:29:37.886Z,29.40
2023-05-24T12:32:12.825Z,29.40
2023-05-24T12:34:43.469Z,29.60
2023-05-24T12:37:13.814Z,29.70
2023-05-24T12:39:44.267Z,29.90
2023-05-24T12:42:14.007Z,30.00
2023-05-24T12:44:43.032Z,30.10
2023-05-24T12:47:13.056Z,30.20
2023-05-24T12:49:41.589Z,30.30
2023-05-24T12:52:09.929Z,30.40
2023-05-24T12:54:38.266Z,30.40
2023-05-24T12:57:07.176Z,30.40
2023-05-24T12:59:35.679Z,30.40
2023-05-24T13:02:04.140Z,30.40
2023-05-24T13:04:36.097Z,30.30
2023-05-24T13:07:04.478Z,30.40
2023-05-24T13:09:34.282Z,30.50
2023-05-24T13:12:03.174Z,30.50
2023-05-24T13:14:31.583Z,30.50
2023-05-24T13:17:00.303Z,30.40
2023-05-24T13:19:29.111Z,30.40
2023-05-24T13:21:58.904Z,30.30
2023-05-24T13:24:27.862Z,30.20
2023-05-24T13:26:58.867Z,30.10
2023-05-24T13:29:39.391Z,30.20
2023-05-24T13:32:14.192Z,30.20
2023-05-24T13:34:42.662Z,30.30
2023-05-24T13:37:12.559Z,30.30
2023-05-24T13:39:41.051Z,30.30
2023-05-24T13:42:10.723Z,30.30
2023-05-24T13:44:40.217Z,30.20
2023-05-24T13:47:09.149Z,30.20
2023-05-24T13:49:37.964Z,30.10
2023-05-24T13:52:06.559Z,30.10
2023-05-24T13:54:36.709Z,30.20
2023-05-24T13:57:06.698Z,30.10
2023-05-24T13:59:35.113Z,30.10
2023-05-24T14:02:03.576Z,30.10
2023-05-24T14:04:31.952Z,30.10
2023-05-24T14:07:00.246Z,30.10
2023-05-24T14:09:28.747Z,30.10
2023-05-24T14:11:58.611Z,30.10
2023-05-24T14:16:58.337Z,30.70
2023-05-24T14:19:26.734Z,31.50
2023-05-24T14:21:55.149Z,32.30
2023-05-24T14:24:24.009Z,33.30
2023-05-24T14:26:52.432Z,33.90
2023-05-24T14:29:22.111Z,34.00
2023-05-24T14:31:51.362Z,33.70
2023-05-24T14:34:19.830Z,33.60
2023-05-24T14:36:48.704Z,33.50
2023-05-24T14:39:17.341Z,33.20
2023-05-24T14:41:45.732Z,33.00
2023-05-24T14:44:14.090Z,32.70
2023-05-24T14:46:43.949Z,32.50
2023-05-24T14:49:12.660Z,32.30
2023-05-24T14:51:41.005Z,32.00
2023-05-24T14:54:12.523Z,31.80
2023-05-24T14:56:41.164Z,31.70
2023-05-24T14:59:10.805Z,31.50
2023-05-24T15:01:39.201Z,31.40
2023-05-24T15:04:09.267Z,31.30
2023-05-24T15:06:37.580Z,31.20
2023-05-24T15:09:07.754Z,31.00
2023-05-24T15:11:36.645Z,31.00
2023-05-24T15:14:05.550Z,30.80
2023-05-24T15:16:34.005Z,30.80
2023-05-24T15:19:02.516Z,30.80
2023-05-24T15:21:32.972Z,30.70
2023-05-24T15:24:01.409Z,30.70
2023-05-24T15:26:29.740Z,30.60
2023-05-24T15:29:01.121Z,30.50
2023-05-24T15:31:29.590Z,30.50
2023-05-24T15:33:57.887Z,30.40
2023-05-24T15:36:26.441Z,30.30
2023-05-24T15:38:56.229Z,30.30
2023-05-24T15:41:24.854Z,30.20
2023-05-24T15:43:53.477Z,30.20
2023-05-24T15:46:23.028Z,30.20
2023-05-24T15:48:51.521Z,30.10
2023-05-24T15:53:51.394Z,30.20
2023-05-24T15:56:21.680Z,30.10
2023-05-24T15:58:50.188Z,30.00
2023-05-24T16:01:18.652Z,29.90
2023-05-24T16:03:47.338Z,29.80
2023-05-24T16:06:15.852Z,29.70
2023-05-24T16:08:44.200Z,29.60
2023-05-24T16:11:13.460Z,29.50
2023-05-24T16:13:43.376Z,29.40
2023-05-24T16:16:11.818Z,29.30
2023-05-24T16:18:40.254Z,29.20
2023-05-24T16:21:08.749Z,29.10
2023-05-24T16:23:37.249Z,29.00
2023-05-24T16:26:05.817Z,29.00
2023-05-24T16:28:34.234Z,28.90
2023-05-24T16:31:04.347Z,28.80
2023-05-24T16:33:32.696Z,28.80
2023-05-24T16:36:04.525Z,28.70
2023-05-24T16:38:32.976Z,28.60
2023-05-24T16:41:01.431Z,28.50
2023-05-24T16:43:30.506Z,28.30
2023-05-24T16:45:59.226Z,28.30
2023-05-24T16:48:31.865Z,28.30
2023-05-24T16:51:01.163Z,28.20
2023-05-24T16:53:29.701Z,28.20
2023-05-24T16:55:58.471Z,28.10
2023-05-24T16:58:28.973Z,28.00
2023-05-24T17:30:44.508Z,27.10
2023-05-24T17:33:13.064Z,27.00
2023-05-24T17:35:43.057Z,26.90
2023-05-24T17:38:11.786Z,26.80
2023-05-24T17:40:40.562Z,26.80
2023-05-24T17:43:09.278Z,26.70
2023-05-24T17:45:37.946Z,26.70
2023-05-24T17:48:08.321Z,26.60
2023-05-24T17:50:36.956Z,26.60
2023-05-24T17:53:10.977Z,26.50
2023-05-24T17:55:47.729Z,26.40
2023-05-24T17:58:16.319Z,26.30
2023-05-24T18:00:44.834Z,26.20
2023-05-24T18:03:14.865Z,26.20
2023-05-24T18:17:43.812Z,25.80
2023-05-24T18:20:15.585Z,25.80
2023-05-24T18:22:44.240Z,25.70
2023-05-24T18:25:13.398Z,25.70
2023-05-24T18:27:42.242Z,25.60
2023-05-24T18:30:11.662Z,25.50
2023-05-24T18:32:48.887Z,25.50
2023-05-24T18:35:28.178Z,25.40
2023-05-24T18:37:56.614Z,25.40
2023-05-24T18:40:25.072Z,25.30
2023-05-24T18:42:53.530Z,25.20
2023-05-24T18:45:22.977Z,25.20
2023-05-24T18:47:51.827Z,25.10
2023-05-24T18:50:23.208Z,25.00
2023-05-24T18:52:53.661Z,25.00
2023-05-24T18:55:22.540Z,24.90
2023-05-24T18:57:51.482Z,24.90
2023-05-24T19:00:22.887Z,24.80
2023-05-24T19:02:51.887Z,24.80
2023-05-24T19:05:21.585Z,24.70
2023-05-24T19:07:50.447Z,24.70
2023-05-24T19:10:21.009Z,24.60
2023-05-24T19:12:49.685Z,24.60
2023-05-24T19:15:18.580Z,24.60
2023-05-24T19:17:47.038Z,24.50
2023-05-24T19:20:15.604Z,24.50
2023-05-24T19:22:44.064Z,24.40
2023-05-24T19:25:12.583Z,24.40
2023-05-24T19:27:57.879Z,24.40
2023-05-24T19:30:27.766Z,24.30
2023-05-24T19:32:56.395Z,24.30
2023-05-24T19:35:25.017Z,24.20
2023-05-24T19:37:53.703Z,24.20
2023-05-24T19:40:22.445Z,24.10
2023-05-24T19:42:57.220Z,24.10
2023-05-24T19:45:26.290Z,24.10
2023-05-24T19:47:54.660Z,24.00
2023-05-24T19:50:24.545Z,24.00
2023-05-24T19:52:54.303Z,24.00
2023-05-24T19:55:22.685Z,23.90
2023-05-24T19:57:52.987Z,23.90
2023-05-24T20:00:21.488Z,23.90
2023-05-24T20:02:50.092Z,23.80
2023-05-24T20:05:18.919Z,23.80
2023-05-24T20:07:47.415Z,23.80
2023-05-24T20:10:15.982Z,23.70
2023-05-24T20:53:03.596Z,23.30
2023-05-24T20:55:33.949Z,23.30
2023-05-24T20:58:03.778Z,23.20
2023-05-24T21:00:33.849Z,23.20
2023-05-24T21:03:02.546Z,23.20
2023-05-24T21:05:31.142Z,23.20
2023-05-24T21:07:59.687Z,23.20
2023-05-24T21:10:30.076Z,23.20
2023-05-24T21:12:58.842Z,23.20
2023-05-24T21:15:27.251Z,23.10
2023-05-24T21:17:55.812Z,23.10
2023-05-24T21:20:24.894Z,23.10
2023-05-24T21:22:53.666Z,23.00
2023-05-24T21:25:22.064Z,23.00
2023-05-24T21:27:51.897Z,23.00
2023-05-24T21:30:20.733Z,22.90
2023-05-24T21:32:49.216Z,22.90
2023-05-24T21:35:17.678Z,22.90
2023-05-24T21:37:46.574Z,22.80
2023-05-24T21:40:15.031Z,22.80
2023-05-24T21:42:44.334Z,22.80
2023-05-24T21:45:14.394Z,22.70
2023-05-24T21:47:43.500Z,22.70
2023-05-24T21:50:12.565Z,22.60
2023-05-24T21:52:41.016Z,22.60
2023-05-24T21:55:10.142Z,22.60
2023-05-24T21:57:38.791Z,22.60
2023-05-24T22:00:08.769Z,22.50
2023-05-24T22:02:38.737Z,22.50
2023-05-24T22:05:08.388Z,22.40
2023-05-24T22:07:37.712Z,22.40
2023-05-24T22:10:07.462Z,22.40
2023-05-24T22:12:35.945Z,22.40
2023-05-24T22:15:05.011Z,22.40
2023-05-24T22:17:37.175Z,22.40
2023-05-24T22:20:08.842Z,22.30
2023-05-24T22:22:40.239Z,22.30
2023-05-24T22:25:11.033Z,22.30
2023-05-24T22:27:39.418Z,22.30
2023-05-24T22:30:09.829Z,22.30
2023-05-24T22:32:38.674Z,22.20
2023-05-24T22:35:09.353Z,22.20
2023-05-24T22:37:37.831Z,22.20
2023-05-24T22:40:07.857Z,22.10
2023-05-24T22:42:36.220Z,22.10
2023-05-24T22:45:04.994Z,22.10
2023-05-24T22:47:34.758Z,22.10
2023-05-24T22:50:04.161Z,22.00
2023-05-24T22:52:34.963Z,22.00
2023-05-24T22:55:03.889Z,22.00
2023-05-24T22:57:32.301Z,22.00
2023-05-24T23:00:01.066Z,22.00
2023-05-24T23:02:29.959Z,21.90
2023-05-24T23:05:00.313Z,21.90
2023-05-24T23:07:29.053Z,21.90
2023-05-24T23:10:00.721Z,21.90
2023-05-24T23:12:29.253Z,21.80
2023-05-24T23:14:58.551Z,21.90
2023-05-24T23:17:27.148Z,21.80
2023-05-24T23:19:55.754Z,21.80
2023-05-24T23:22:26.365Z,21.80
2023-05-24T23:24:54.960Z,21.70
2023-05-24T23:27:27.741Z,21.70
2023-05-24T23:29:56.413Z,21.70
2023-05-24T23:32:24.783Z,21.70
2023-05-24T23:34:53.135Z,21.70
2023-05-24T23:37:21.643Z,21.60
2023-05-24T23:39:50.086Z,21.60
2023-05-24T23:42:18.515Z,21.60
2023-05-24T23:44:48.445Z,21.50
2023-05-24T23:47:17.126Z,21.50
2023-05-24T23:49:45.764Z,21.50
2023-05-24T23:52:15.484Z,21.40
2023-05-24T23:54:43.865Z,21.40
2023-05-24T23:57:12.326Z,21.30
2023-05-24T23:59:40.712Z,21.30
